createdAt,value
2018-04-11T00:00:23.398Z,60.90
2018-04-11T00:02:50.991Z,61.90
2018-04-11T00:05:18.631Z,62.00
2018-04-11T00:07:46.226Z,62.40
2018-04-11T00:10:13.829Z,62.50
2018-04-11T00:12:41.458Z,62.30
2018-04-11T00:15:09.047Z,62.40
2018-04-11T00:17:37.405Z,62.30
2018-04-11T00:20:05.044Z,62.30
2018-04-11T00:22:32.642Z,62.20
2018-04-11T00:25:01.006Z,62.00
2018-04-11T00:27:28.618Z,61.90
2018-04-11T00:29:56.212Z,62.00
2018-04-11T00:32:23.830Z,61.40
2018-04-11T00:34:51.423Z,61.40
2018-04-11T00:37:19.010Z,61.10
2018-04-11T00:39:46.628Z,61.20
2018-04-11T00:42:14.221Z,62.70
2018-04-11T00:44:41.847Z,61.90
2018-04-11T00:47:09.443Z,61.90
2018-04-11T00:49:37.819Z,61.80
2018-04-11T00:52:05.442Z,61.70
2018-04-11T00:54:33.048Z,61.20
2018-04-11T00:57:00.670Z,61.30
2018-04-11T00:59:28.258Z,61.70
2018-04-11T01:01:55.842Z,61.70
2018-04-11T01:04:24.226Z,62.60
2018-04-11T01:06:52.582Z,62.50
2018-04-11T01:09:20.207Z,62.30
2018-04-11T01:11:47.794Z,62.70
2018-04-11T01:14:15.381Z,62.90
2018-04-11T01:16:43.760Z,63.60
2018-04-11T01:19:12.135Z,63.80
2018-04-11T01:21:40.530Z,63.30
2018-04-11T01:24:08.121Z,63.30
2018-04-11T01:26:35.748Z,63.40
2018-04-11T01:29:04.132Z,62.80
2018-04-11T01:31:31.714Z,62.80
2018-04-11T01:33:59.335Z,62.90
2018-04-11T01:36:27.695Z,63.00
2018-04-11T01:38:55.293Z,63.00
2018-04-11T01:41:22.914Z,63.10
2018-04-11T01:43:50.507Z,62.60
2018-04-11T01:46:18.894Z,63.30
2018-04-11T01:48:46.482Z,63.20
2018-04-11T01:51:14.070Z,64.50
2018-04-11T01:53:41.695Z,63.60
2018-04-11T01:56:09.290Z,63.90
2018-04-11T01:58:36.926Z,63.60
2018-04-11T02:01:04.512Z,63.80
2018-04-11T02:03:32.894Z,63.80
2018-04-11T02:06:00.496Z,63.90
2018-04-11T02:08:28.107Z,64.20
2018-04-11T02:10:55.700Z,63.90
2018-04-11T02:13:24.082Z,64.40
2018-04-11T02:15:52.450Z,64.80
2018-04-11T02:18:20.071Z,64.70
2018-04-11T02:20:47.662Z,65.00
2018-04-11T02:23:15.286Z,65.00
2018-04-11T02:25:42.879Z,65.00
2018-04-11T02:28:10.510Z,64.70
2018-04-11T02:30:38.114Z,64.10
2018-04-11T02:33:06.510Z,64.60
2018-04-11T02:35:34.876Z,65.00
2018-04-11T02:38:03.272Z,64.70
2018-04-11T02:40:30.878Z,64.60
2018-04-11T02:42:58.528Z,65.00
2018-04-11T02:45:26.123Z,65.60
2018-04-11T02:47:55.246Z,65.40
2018-04-11T02:50:23.594Z,64.80
2018-04-11T02:52:51.210Z,64.80
2018-04-11T02:55:18.810Z,64.70
2018-04-11T02:57:46.454Z,65.40
2018-04-11T03:00:14.047Z,65.60
2018-04-11T03:02:41.662Z,65.50
2018-04-11T03:05:09.263Z,65.70
2018-04-11T03:07:36.886Z,66.00
2018-04-11T03:10:04.476Z,65.80
2018-04-11T03:12:32.867Z,65.30
2018-04-11T03:15:00.466Z,65.20
2018-04-11T03:17:28.066Z,65.80
2018-04-11T03:19:55.682Z,65.20
2018-04-11T03:22:23.288Z,65.40
2018-04-11T03:24:50.912Z,65.70
2018-04-11T03:27:18.507Z,65.80
2018-04-11T03:29:46.121Z,65.70
2018-04-11T03:32:13.723Z,65.40
2018-04-11T03:34:41.344Z,65.80
2018-04-11T03:37:08.947Z,65.80
2018-04-11T03:39:36.566Z,66.00
2018-04-11T03:42:04.838Z,66.30
2018-04-11T03:44:32.466Z,66.00
2018-04-11T03:47:00.060Z,65.70
2018-04-11T03:49:27.683Z,65.90
2018-04-11T03:51:55.420Z,65.40
2018-04-11T03:54:23.041Z,66.70
2018-04-11T03:56:51.398Z,66.00
2018-04-11T03:59:19.018Z,65.80
2018-04-11T04:01:46.607Z,65.40
2018-04-11T04:04:14.225Z,65.80
2018-04-11T04:06:41.818Z,65.60
2018-04-11T04:09:09.444Z,65.20
2018-04-11T04:11:37.037Z,65.30
2018-04-11T04:14:16.486Z,65.40
2018-04-11T04:16:55.966Z,65.20
2018-04-11T04:19:35.345Z,65.50
2018-04-11T04:22:02.940Z,65.70
2018-04-11T04:24:31.334Z,65.60
2018-04-11T04:26:59.689Z,66.10
2018-04-11T04:29:27.418Z,66.00
2018-04-11T04:31:55.022Z,66.10
2018-04-11T04:34:23.402Z,66.10
2018-04-11T04:36:51.762Z,66.30
2018-04-11T04:39:19.387Z,66.00
2018-04-11T04:41:46.981Z,66.40
2018-04-11T04:44:14.581Z,66.10
2018-04-11T04:46:42.199Z,66.10
2018-04-11T04:49:09.797Z,66.30
2018-04-11T04:51:38.201Z,66.50
2018-04-11T04:54:05.790Z,66.40
2018-04-11T04:56:33.382Z,66.30
2018-04-11T04:59:01.831Z,66.40
2018-04-11T05:01:29.426Z,66.20
2018-04-11T05:03:57.809Z,66.10
2018-04-11T05:06:26.167Z,66.00
2018-04-11T05:08:53.787Z,65.90
2018-04-11T05:11:21.379Z,66.10
2018-04-11T05:13:48.997Z,66.40
2018-04-11T05:16:16.595Z,66.90
2018-04-11T05:18:44.226Z,67.10
2018-04-11T05:21:11.819Z,67.00
2018-04-11T05:23:39.425Z,67.00
2018-04-11T05:26:07.047Z,67.00
2018-04-11T05:28:34.643Z,67.00
2018-04-11T05:31:03.028Z,67.10
2018-04-11T05:33:30.624Z,67.00
2018-04-11T05:35:58.242Z,66.90
2018-04-11T05:38:25.840Z,67.00
2018-04-11T05:40:53.459Z,67.20
2018-04-11T05:43:21.823Z,66.70
2018-04-11T05:45:50.214Z,66.90
2018-04-11T05:48:18.566Z,67.20
2018-04-11T05:50:46.190Z,67.20
2018-04-11T05:53:13.792Z,67.20
2018-04-11T05:55:41.419Z,67.00
2018-04-11T05:58:09.010Z,66.80
2018-04-11T06:00:36.597Z,66.50
2018-04-11T06:03:04.980Z,66.50
2018-04-11T06:05:33.341Z,67.00
2018-04-11T06:08:00.963Z,67.00
2018-04-11T06:10:28.841Z,67.00
2018-04-11T06:12:56.467Z,67.20
2018-04-11T06:15:24.063Z,67.10
2018-04-11T06:17:51.678Z,66.90
2018-04-11T06:20:19.275Z,66.50
2018-04-11T06:22:46.953Z,66.80
2018-04-11T06:25:14.520Z,66.70
2018-04-11T06:27:42.142Z,66.60
2018-04-11T06:30:09.740Z,67.00
2018-04-11T06:32:37.371Z,67.20
2018-04-11T06:35:05.058Z,67.20
2018-04-11T06:37:32.657Z,67.00
2018-04-11T06:40:00.258Z,66.80
2018-04-11T06:42:27.882Z,66.90
2018-04-11T06:44:56.238Z,67.00
2018-04-11T06:47:23.882Z,67.00
2018-04-11T06:49:51.477Z,67.20
2018-04-11T06:52:19.866Z,66.30
2018-04-11T06:54:47.459Z,66.30
2018-04-11T06:57:15.082Z,66.70
2018-04-11T06:59:42.671Z,66.90
2018-04-11T07:02:10.294Z,66.60
2018-04-11T07:04:38.650Z,66.80
2018-04-11T07:07:06.323Z,66.80
2018-04-11T07:09:33.913Z,66.60
2018-04-11T07:12:01.547Z,66.30
2018-04-11T07:14:29.135Z,66.30
2018-04-11T07:16:56.750Z,66.60
2018-04-11T07:19:24.342Z,66.60
2018-04-11T07:21:52.740Z,66.50
2018-04-11T07:24:20.339Z,66.40
2018-04-11T07:26:47.974Z,66.30
2018-04-11T07:29:15.571Z,66.10
2018-04-11T07:31:43.161Z,65.50
2018-04-11T07:34:11.546Z,65.10
2018-04-11T07:36:39.906Z,65.20
2018-04-11T07:39:08.292Z,65.50
2018-04-11T07:41:36.651Z,65.40
2018-04-11T07:44:04.274Z,65.40
2018-04-11T07:46:31.866Z,65.80
2018-04-11T07:48:59.571Z,65.60
2018-04-11T07:51:27.180Z,65.80
2018-04-11T07:53:54.801Z,65.60
2018-04-11T07:56:22.395Z,65.50
2018-04-11T07:58:50.167Z,65.40
2018-04-11T08:01:17.845Z,64.60
2018-04-11T08:03:45.475Z,64.30
2018-04-11T08:06:13.065Z,64.40
2018-04-11T08:08:40.699Z,64.40
2018-04-11T08:11:08.295Z,64.80
2018-04-11T08:13:35.916Z,65.00
2018-04-11T08:16:03.509Z,64.10
2018-04-11T08:18:31.140Z,64.40
2018-04-11T08:20:58.739Z,63.90
2018-04-11T08:23:28.661Z,64.00
2018-04-11T08:25:57.107Z,63.70
2018-04-11T08:28:24.732Z,63.60
2018-04-11T08:30:52.426Z,63.60
2018-04-11T08:33:20.037Z,63.50
2018-04-11T08:35:48.394Z,63.20
2018-04-11T08:38:16.015Z,63.20
2018-04-11T08:40:43.657Z,63.00
2018-04-11T08:43:11.283Z,62.90
2018-04-11T08:45:39.650Z,63.00
2018-04-11T08:48:07.266Z,62.90
2018-04-11T08:50:34.855Z,62.80
2018-04-11T08:53:02.474Z,63.40
2018-04-11T08:55:30.070Z,63.20
2018-04-11T08:57:57.703Z,63.40
2018-04-11T09:00:25.299Z,63.20
2018-04-11T09:02:52.904Z,62.90
2018-04-11T09:05:21.295Z,61.80
2018-04-11T09:07:48.896Z,61.60
2018-04-11T09:10:16.544Z,61.50
2018-04-11T09:12:44.151Z,61.70
2018-04-11T09:15:12.542Z,62.10
2018-04-11T09:17:40.902Z,61.70
2018-04-11T09:20:08.531Z,61.70
2018-04-11T09:22:36.169Z,62.40
2018-04-11T09:25:03.790Z,61.50
2018-04-11T09:27:32.145Z,61.80
2018-04-11T09:29:59.761Z,61.60
2018-04-11T09:32:27.464Z,61.70
2018-04-11T09:34:55.116Z,61.00
2018-04-11T09:37:22.723Z,61.10
2018-04-11T09:39:51.111Z,61.60
2018-04-11T09:42:19.486Z,61.70
2018-04-11T09:44:47.910Z,61.70
2018-04-11T09:47:15.660Z,61.70
2018-04-11T09:49:43.278Z,60.40
2018-04-11T09:52:11.832Z,59.70
2018-04-11T09:54:39.695Z,59.60
2018-04-11T09:57:07.568Z,60.00
2018-04-11T09:59:35.415Z,60.00
2018-04-11T10:02:07.192Z,60.40
2018-04-11T10:04:35.055Z,60.60
2018-04-11T10:07:02.818Z,59.80
2018-04-11T10:09:30.597Z,59.90
2018-04-11T10:11:58.407Z,60.00
2018-04-11T10:14:26.315Z,59.90
2018-04-11T10:16:54.141Z,58.90
2018-04-11T10:19:21.957Z,58.70
2018-04-11T10:21:49.819Z,59.00
2018-04-11T10:24:17.578Z,59.30
2018-04-11T10:26:45.241Z,59.40
2018-04-11T10:29:13.030Z,59.20
2018-04-11T10:31:40.871Z,58.50
2018-04-11T10:34:08.635Z,58.60
2018-04-11T10:36:36.443Z,58.70
2018-04-11T10:39:05.024Z,58.20
2018-04-11T10:41:33.625Z,58.30
2018-04-11T10:44:01.543Z,58.30
2018-04-11T10:46:30.223Z,58.50
2018-04-11T10:48:58.729Z,58.40
2018-04-11T10:51:26.734Z,58.40
2018-04-11T10:53:54.330Z,58.10
2018-04-11T10:56:21.964Z,57.50
2018-04-11T10:58:49.645Z,57.00
2018-04-11T11:01:17.524Z,57.00
2018-04-11T11:03:45.126Z,57.00
2018-04-11T11:06:13.514Z,56.40
2018-04-11T11:08:41.872Z,56.80
2018-04-11T11:11:09.490Z,56.70
2018-04-11T11:13:37.095Z,56.50
2018-04-11T11:16:04.726Z,56.80
2018-04-11T11:18:32.782Z,56.90
2018-04-11T11:21:00.438Z,56.50
2018-04-11T11:23:28.033Z,56.00
2018-04-11T11:25:55.987Z,56.20
2018-04-11T11:28:23.859Z,56.40
2018-04-11T11:30:51.729Z,56.60
2018-04-11T11:33:20.097Z,55.80
2018-04-11T11:35:47.853Z,55.70
2018-04-11T11:38:15.462Z,55.80
2018-04-11T11:40:43.853Z,55.20
2018-04-11T11:43:11.679Z,55.10
2018-04-11T11:45:39.539Z,55.10
2018-04-11T11:48:07.406Z,54.90
2018-04-11T11:50:35.832Z,54.80
2018-04-11T11:53:04.198Z,54.80
2018-04-11T11:55:32.602Z,54.40
2018-04-11T11:58:00.195Z,54.30
2018-04-11T12:00:27.821Z,54.40
2018-04-11T12:02:55.443Z,54.40
2018-04-11T12:05:23.038Z,54.90
2018-04-11T12:07:50.749Z,54.60
2018-04-11T12:10:18.344Z,54.00
2018-04-11T12:12:46.750Z,54.50
2018-04-11T12:15:14.428Z,54.50
2018-04-11T12:17:42.212Z,54.70
2018-04-11T12:20:09.827Z,54.60
2018-04-11T12:22:37.446Z,54.50
2018-04-11T12:25:05.077Z,54.60
2018-04-11T12:27:32.694Z,54.40
2018-04-11T12:30:01.151Z,54.30
2018-04-11T12:32:28.778Z,54.30
2018-04-11T12:34:56.376Z,54.80
2018-04-11T12:37:24.015Z,55.00
2018-04-11T12:39:51.805Z,54.50
2018-04-11T12:42:20.196Z,53.90
2018-04-11T12:44:48.558Z,54.60
2018-04-11T12:47:16.191Z,54.00
2018-04-11T12:49:43.790Z,54.00
2018-04-11T12:52:11.416Z,54.00
2018-04-11T12:54:39.006Z,53.60
2018-04-11T12:57:06.737Z,53.70
2018-04-11T12:59:34.334Z,53.60
2018-04-11T13:02:02.728Z,54.40
2018-04-11T13:04:31.087Z,53.90
2018-04-11T13:06:58.719Z,53.80
2018-04-11T13:09:26.399Z,53.70
2018-04-11T13:11:54.030Z,53.90
2018-04-11T13:14:21.628Z,54.20
2018-04-11T13:16:49.250Z,54.30
2018-04-11T13:19:16.843Z,54.40
2018-04-11T13:21:44.483Z,54.40
2018-04-11T13:24:12.090Z,54.30
2018-04-11T13:26:40.487Z,54.40
2018-04-11T13:29:08.087Z,54.30
2018-04-11T13:31:35.736Z,54.60
2018-04-11T13:34:03.333Z,54.70
2018-04-11T13:36:31.714Z,55.10
2018-04-11T13:39:00.855Z,54.90
2018-04-11T13:41:28.447Z,54.90
2018-04-11T13:43:56.071Z,55.00
2018-04-11T13:46:23.683Z,55.30
2018-04-11T13:48:51.303Z,55.10
2018-04-11T13:51:18.896Z,55.30
2018-04-11T13:53:46.521Z,55.20
2018-04-11T13:56:14.209Z,54.80
2018-04-11T13:58:41.837Z,54.30
2018-04-11T14:01:09.443Z,54.20
2018-04-11T14:03:37.064Z,54.20
2018-04-11T14:06:04.698Z,54.20
2018-04-11T14:08:32.317Z,53.80
2018-04-11T14:10:59.920Z,53.90
2018-04-11T14:13:28.308Z,54.10
2018-04-11T14:15:56.676Z,54.00
2018-04-11T14:18:25.073Z,53.90
2018-04-11T14:20:52.685Z,53.80
2018-04-11T14:23:20.540Z,53.50
2018-04-11T14:25:48.135Z,53.50
2018-04-11T14:28:15.763Z,53.60
2018-04-11T14:30:43.366Z,54.00
2018-04-11T14:33:11.765Z,53.40
2018-04-11T14:35:39.355Z,53.30
2018-04-11T14:38:06.974Z,53.20
2018-04-11T14:40:35.330Z,53.40
2018-04-11T14:43:02.965Z,53.40
2018-04-11T14:45:30.566Z,53.30
2018-04-11T14:47:58.183Z,53.20
2018-04-11T14:50:25.779Z,53.40
2018-04-11T14:52:53.405Z,53.80
2018-04-11T14:55:21.001Z,54.10
2018-04-11T14:57:48.636Z,54.40
2018-04-11T15:00:16.237Z,54.10
2018-04-11T15:02:44.594Z,53.80
2018-04-11T15:05:12.216Z,53.80
2018-04-11T15:07:39.816Z,53.80
2018-04-11T15:10:07.443Z,53.60
2018-04-11T15:12:35.034Z,53.60
2018-04-11T15:15:03.433Z,53.80
2018-04-11T15:17:31.796Z,53.90
2018-04-11T15:19:59.432Z,53.90
2018-04-11T15:22:27.030Z,54.10
2018-04-11T15:24:55.392Z,53.50
2018-04-11T15:27:23.023Z,54.00
2018-04-11T15:29:50.627Z,54.10
2018-04-11T15:32:18.259Z,54.50
2018-04-11T15:34:45.865Z,54.70
2018-04-11T15:37:14.271Z,55.00
2018-04-11T15:39:41.867Z,54.90
2018-04-11T15:42:09.493Z,55.00
2018-04-11T15:44:37.093Z,55.00
2018-04-11T15:47:04.690Z,55.10
2018-04-11T15:49:33.091Z,55.10
2018-04-11T15:52:00.773Z,55.00
2018-04-11T15:54:28.435Z,55.20
2018-04-11T15:56:56.033Z,55.30
2018-04-11T15:59:23.655Z,55.50
2018-04-11T16:01:51.252Z,55.40
2018-04-11T16:04:18.880Z,55.20
2018-04-11T16:06:46.475Z,55.20
2018-04-11T16:09:14.863Z,55.20
2018-04-11T16:11:43.240Z,55.20
2018-04-11T16:14:10.873Z,55.20
2018-04-11T16:16:38.492Z,55.10
2018-04-11T16:19:06.091Z,55.20
2018-04-11T16:21:33.715Z,55.20
2018-04-11T16:24:01.307Z,55.40
2018-04-11T16:26:28.926Z,55.60
2018-04-11T16:28:56.530Z,55.60
2018-04-11T16:31:24.148Z,55.80
2018-04-11T16:33:51.751Z,55.70
2018-04-11T16:36:19.387Z,55.50
2018-04-11T16:38:46.975Z,55.50
2018-04-11T16:41:14.567Z,55.70
2018-04-11T16:43:42.195Z,55.80
2018-04-11T16:46:09.790Z,55.80
2018-04-11T16:48:37.414Z,55.90
2018-04-11T16:51:05.023Z,55.80
2018-04-11T16:53:33.419Z,56.80
2018-04-11T16:56:01.022Z,56.70
2018-04-11T16:58:28.640Z,57.00
2018-04-11T17:00:56.239Z,57.00
2018-04-11T17:03:23.869Z,56.90
2018-04-11T17:05:51.482Z,56.90
2018-04-11T17:08:19.082Z,57.00
2018-04-11T17:10:46.702Z,57.20
2018-04-11T17:13:15.066Z,57.00
2018-04-11T17:15:42.683Z,57.10
2018-04-11T17:18:10.291Z,57.10
2018-04-11T17:20:50.164Z,57.10
2018-04-11T17:23:30.490Z,57.20
2018-04-11T17:26:09.932Z,57.20
2018-04-11T17:28:49.506Z,57.30
2018-04-11T17:31:23.929Z,57.60
2018-04-11T17:33:52.480Z,57.60
2018-04-11T17:36:20.353Z,57.40
2018-04-11T17:38:47.952Z,57.40
2018-04-11T17:41:15.858Z,57.50
2018-04-11T17:43:44.031Z,57.20
2018-04-11T17:46:12.001Z,57.30
2018-04-11T17:48:40.174Z,57.40
2018-04-11T17:51:10.626Z,57.70
2018-04-11T17:53:40.654Z,57.60
2018-04-11T17:56:10.135Z,57.90
2018-04-11T17:58:40.150Z,57.60
2018-04-11T18:01:07.955Z,57.40
2018-04-11T18:03:36.307Z,57.80
2018-04-11T18:06:03.954Z,57.70
2018-04-11T18:08:31.561Z,58.00
2018-04-11T18:10:59.933Z,58.30
2018-04-11T18:13:28.315Z,58.20
2018-04-11T18:15:56.675Z,58.60
2018-04-11T18:18:24.305Z,58.50
2018-04-11T18:20:51.910Z,58.80
2018-04-11T18:23:20.309Z,59.10
2018-04-11T18:25:48.683Z,58.50
2018-04-11T18:28:17.068Z,58.40
2018-04-11T18:30:44.672Z,58.40
2018-04-11T18:33:12.296Z,59.00
2018-04-11T18:35:39.898Z,59.00
2018-04-11T18:38:07.520Z,58.90
2018-04-11T18:40:35.116Z,59.10
2018-04-11T18:43:02.738Z,59.20
2018-04-11T18:45:30.358Z,59.40
2018-04-11T18:47:57.970Z,59.60
2018-04-11T18:50:25.650Z,60.30
2018-04-11T18:52:53.246Z,60.20
2018-04-11T18:55:20.899Z,60.10
2018-04-11T18:57:48.494Z,60.50
2018-04-11T19:00:16.891Z,61.20
2018-04-11T19:02:44.494Z,61.20
2018-04-11T19:05:12.095Z,61.40
2018-04-11T19:07:40.479Z,61.20
2018-04-11T19:10:08.074Z,61.10
2018-04-11T19:12:35.711Z,60.90
2018-04-11T19:15:03.307Z,61.00
2018-04-11T19:17:30.931Z,61.00
2018-04-11T19:19:58.536Z,62.00
2018-04-11T19:22:26.161Z,61.20
2018-04-11T19:24:53.758Z,61.20
2018-04-11T19:27:21.383Z,61.30
2018-04-11T19:29:48.975Z,61.40
2018-04-11T19:32:16.595Z,61.40
2018-04-11T19:34:45.084Z,61.90
2018-04-11T19:37:12.723Z,62.30
2018-04-11T19:39:40.345Z,62.30
2018-04-11T19:42:07.939Z,62.40
2018-04-11T19:44:36.323Z,63.00
2018-04-11T19:47:04.681Z,63.50
2018-04-11T19:49:33.070Z,63.30
2018-04-11T19:52:01.435Z,63.10
2018-04-11T19:54:29.074Z,63.00
2018-04-11T19:56:56.663Z,63.10
2018-04-11T19:59:24.324Z,63.10
2018-04-11T20:01:51.912Z,62.90
2018-04-11T20:04:19.530Z,63.50
2018-04-11T20:06:47.227Z,63.70
2018-04-11T20:09:15.606Z,63.60
2018-04-11T20:11:43.979Z,63.90
2018-04-11T20:14:12.368Z,63.80
2018-04-11T20:16:39.977Z,63.60
2018-04-11T20:19:07.601Z,63.70
2018-04-11T20:21:35.194Z,63.00
2018-04-11T20:24:02.792Z,62.80
2018-04-11T20:26:31.182Z,63.80
2018-04-11T20:28:59.548Z,63.90
2018-04-11T20:31:27.937Z,63.90
2018-04-11T20:33:56.298Z,63.50
2018-04-11T20:36:23.921Z,63.40
2018-04-11T20:38:51.513Z,62.90
2018-04-11T20:41:19.330Z,62.70
2018-04-11T20:43:46.923Z,62.80
2018-04-11T20:46:14.554Z,64.30
2018-04-11T20:48:42.161Z,63.80
2018-04-11T20:51:09.760Z,63.90
2018-04-11T20:53:37.387Z,64.00
2018-04-11T20:56:04.984Z,63.60
2018-04-11T20:58:32.616Z,64.00
2018-04-11T21:01:01.172Z,64.10
2018-04-11T21:03:28.812Z,64.00
2018-04-11T21:05:56.443Z,63.50
2018-04-11T21:08:24.089Z,62.40
2018-04-11T21:10:52.457Z,62.10
2018-04-11T21:13:20.054Z,62.00
2018-04-11T21:15:47.677Z,62.50
2018-04-11T21:18:15.282Z,62.40
2018-04-11T21:20:42.902Z,62.80
2018-04-11T21:23:10.499Z,62.80
2018-04-11T21:25:38.544Z,63.00
2018-04-11T21:28:06.482Z,63.10
2018-04-11T21:30:34.276Z,62.90
2018-04-11T21:33:02.930Z,62.70
2018-04-11T21:35:30.798Z,62.60
2018-04-11T21:37:58.666Z,62.50
2018-04-11T21:40:26.273Z,62.20
2018-04-11T21:42:53.889Z,62.20
2018-04-11T21:45:21.484Z,61.80
2018-04-11T21:47:49.867Z,62.50
2018-04-11T21:50:18.226Z,62.30
2018-04-11T21:52:45.842Z,62.20
2018-04-11T21:55:13.431Z,62.00
2018-04-11T21:57:41.063Z,62.30
2018-04-11T22:00:11.431Z,62.70
2018-04-11T22:02:39.060Z,61.90
2018-04-11T22:05:06.668Z,62.70
2018-04-11T22:07:35.022Z,62.60
2018-04-11T22:10:02.642Z,62.50
2018-04-11T22:12:30.232Z,62.30
2018-04-11T22:14:57.858Z,62.20
2018-04-11T22:17:25.450Z,62.90
2018-04-11T22:19:53.060Z,63.00
2018-04-11T22:22:20.663Z,63.50
2018-04-11T22:24:49.818Z,62.90
2018-04-11T22:27:18.169Z,63.20
2018-04-11T22:29:45.763Z,63.10
2018-04-11T22:32:13.383Z,63.40
2018-04-11T22:34:40.978Z,62.90
2018-04-11T22:37:08.595Z,62.60
2018-04-11T22:39:36.206Z,62.40
2018-04-11T22:42:03.823Z,62.60
2018-04-11T22:44:32.943Z,63.00
2018-04-11T22:47:01.334Z,62.20
2018-04-11T22:49:29.690Z,62.70
2018-04-11T22:51:57.308Z,63.80
2018-04-11T22:54:24.894Z,62.10
2018-04-11T22:56:52.521Z,63.40
2018-04-11T22:59:20.118Z,64.20
2018-04-11T23:01:47.702Z,65.70
2018-04-11T23:04:16.133Z,65.30
2018-04-11T23:06:43.730Z,65.20
2018-04-11T23:09:11.352Z,64.20
2018-04-11T23:11:38.938Z,65.00
2018-04-11T23:14:06.530Z,65.10
2018-04-11T23:16:34.905Z,64.40
2018-04-11T23:19:03.260Z,64.30
2018-04-11T23:21:32.394Z,65.20
2018-04-11T23:23:59.979Z,65.20
2018-04-11T23:26:27.561Z,65.80
2018-04-11T23:28:55.174Z,65.40
2018-04-11T23:31:23.527Z,65.40
2018-04-11T23:33:51.142Z,65.30
2018-04-11T23:36:18.726Z,65.30
2018-04-11T23:38:46.338Z,66.00
2018-04-11T23:41:13.932Z,65.60
2018-04-11T23:43:41.542Z,66.30
2018-04-11T23:46:09.896Z,66.40
2018-04-11T23:48:37.511Z,66.30
2018-04-11T23:51:05.105Z,66.00
2018-04-11T23:53:32.737Z,66.10
2018-04-11T23:56:00.330Z,64.70
2018-04-11T23:58:27.948Z,64.10
